FLT555 VNKT-VNLK
Flight info
| Callsign | FLT555 |
|---|---|
| Flight time | 0h 26m |
| Altitude | 150 |
| Route | KIMTI DCT VNKL |
| Aircraft | C408/L-VGD/C |
Departure
| Time | 2026-04-21 08:41 |
|---|---|
| Airport | Tribhuvan International Airport (VNKT) |
Arrival
| Time | 2026-04-21 09:07 |
|---|---|
| Airport | Tenzing-Hillary Airport (VNLK) |
| Time | Latitude | Longitude | Altitude | Speed | Heading |
|---|---|---|---|---|---|
| 2026-04-21 08:19 | 27.70553 | 85.35996 | 4382 ft | 0 kts | 245° |
| 2026-04-21 08:35 | 27.70548 | 85.35990 | 4384 ft | 6 kts | 213° |
| 2026-04-21 08:36 | 27.70463 | 85.36007 | 4382 ft | 18 kts | 163° |
| 2026-04-21 08:36 | 27.70322 | 85.36058 | 4380 ft | 25 kts | 164° |
| 2026-04-21 08:36 | 27.70141 | 85.36014 | 4372 ft | 30 kts | 202° |
| 2026-04-21 08:36 | 27.69929 | 85.35918 | 4366 ft | 35 kts | 201° |
| 2026-04-21 08:37 | 27.69686 | 85.35807 | 4363 ft | 40 kts | 202° |
| 2026-04-21 08:37 | 27.69422 | 85.35685 | 4356 ft | 44 kts | 203° |
| 2026-04-21 08:37 | 27.69229 | 85.35602 | 4351 ft | 25 kts | 202° |
| 2026-04-21 08:37 | 27.69142 | 85.35564 | 4348 ft | 3 kts | 198° |
| 2026-04-21 08:38 | 27.69141 | 85.35564 | 4348 ft | 0 kts | 198° |
| 2026-04-21 08:38 | 27.69135 | 85.35562 | 4348 ft | 9 kts | 198° |
| 2026-04-21 08:38 | 27.69067 | 85.35582 | 4342 ft | 13 kts | 135° |
| 2026-04-21 08:38 | 27.69061 | 85.35649 | 4343 ft | 10 kts | 10° |
| 2026-04-21 08:39 | 27.69110 | 85.35663 | 4348 ft | 0 kts | 21° |
| 2026-04-21 08:39 | 27.69199 | 85.35702 | 4351 ft | 41 kts | 21° |
| 2026-04-21 08:40 | 27.69637 | 85.35902 | 4350 ft | 93 kts | 22° |
| 2026-04-21 08:40 | 27.70371 | 85.36229 | 4438 ft | 127 kts | 22° |
| 2026-04-21 08:40 | 27.71233 | 85.36679 | 4606 ft | 145 kts | 19° |
| 2026-04-21 08:40 | 27.72161 | 85.37060 | 4985 ft | 147 kts | 25° |
| 2026-04-21 08:41 | 27.73016 | 85.37781 | 5352 ft | 157 kts | 41° |
| 2026-04-21 08:41 | 27.73644 | 85.38761 | 5778 ft | 156 kts | 57° |
| 2026-04-21 08:41 | 27.73995 | 85.39954 | 6209 ft | 165 kts | 78° |
| 2026-04-21 08:41 | 27.74031 | 85.41273 | 6631 ft | 170 kts | 90° |
| 2026-04-21 08:42 | 27.74033 | 85.42615 | 6963 ft | 174 kts | 91° |
| 2026-04-21 08:42 | 27.73821 | 85.43928 | 7336 ft | 170 kts | 112° |
| 2026-04-21 08:42 | 27.73302 | 85.45107 | 7750 ft | 165 kts | 128° |
| 2026-04-21 08:42 | 27.72531 | 85.46060 | 8166 ft | 163 kts | 143° |
| 2026-04-21 08:43 | 27.71573 | 85.46733 | 8572 ft | 161 kts | 157° |
| 2026-04-21 08:43 | 27.70559 | 85.47205 | 9001 ft | 157 kts | 158° |
| 2026-04-21 08:43 | 27.69551 | 85.47690 | 9439 ft | 162 kts | 161° |
| 2026-04-21 08:43 | 27.68482 | 85.48133 | 9865 ft | 165 kts | 161° |
| 2026-04-21 08:44 | 27.67443 | 85.48708 | 10256 ft | 169 kts | 154° |
| 2026-04-21 08:44 | 27.66433 | 85.49436 | 10655 ft | 174 kts | 146° |
| 2026-04-21 08:44 | 27.65490 | 85.50311 | 11057 ft | 177 kts | 139° |
| 2026-04-21 08:44 | 27.64631 | 85.51334 | 11465 ft | 181 kts | 132° |
| 2026-04-21 08:45 | 27.63890 | 85.52471 | 11870 ft | 183 kts | 124° |
| 2026-04-21 08:45 | 27.63270 | 85.53721 | 12283 ft | 183 kts | 116° |
| 2026-04-21 08:45 | 27.62795 | 85.55053 | 12702 ft | 185 kts | 109° |
| 2026-04-21 08:45 | 27.62432 | 85.56439 | 13123 ft | 184 kts | 107° |
| 2026-04-21 08:46 | 27.62060 | 85.57814 | 13561 ft | 184 kts | 107° |
| 2026-04-21 08:46 | 27.61691 | 85.59186 | 13961 ft | 182 kts | 107° |
| 2026-04-21 08:46 | 27.61326 | 85.60556 | 14344 ft | 182 kts | 107° |
| 2026-04-21 08:46 | 27.60963 | 85.61928 | 14728 ft | 183 kts | 107° |
| 2026-04-21 08:47 | 27.60587 | 85.63333 | 14937 ft | 196 kts | 107° |
| 2026-04-21 08:47 | 27.60175 | 85.64873 | 14957 ft | 213 kts | 107° |
| 2026-04-21 08:47 | 27.59735 | 85.66521 | 14957 ft | 224 kts | 107° |
| 2026-04-21 08:47 | 27.59278 | 85.68210 | 14954 ft | 230 kts | 108° |
| 2026-04-21 08:48 | 27.58709 | 85.69911 | 14951 ft | 233 kts | 113° |
| 2026-04-21 08:48 | 27.58017 | 85.71572 | 14954 ft | 234 kts | 117° |
| 2026-04-21 08:48 | 27.57281 | 85.73224 | 14965 ft | 237 kts | 117° |
| 2026-04-21 08:48 | 27.56550 | 85.74891 | 14969 ft | 237 kts | 117° |
| 2026-04-21 08:49 | 27.55818 | 85.76558 | 14972 ft | 237 kts | 117° |
| 2026-04-21 08:49 | 27.55083 | 85.78236 | 14964 ft | 238 kts | 117° |
| 2026-04-21 08:49 | 27.54354 | 85.79888 | 14968 ft | 238 kts | 117° |
| 2026-04-21 08:49 | 27.53617 | 85.81561 | 14972 ft | 239 kts | 117° |
| 2026-04-21 08:50 | 27.52865 | 85.83224 | 14906 ft | 236 kts | 122° |
| 2026-04-21 08:50 | 27.52180 | 85.84893 | 14903 ft | 235 kts | 109° |
| 2026-04-21 08:50 | 27.51687 | 85.86671 | 14899 ft | 236 kts | 105° |
| 2026-04-21 08:50 | 27.51320 | 85.88480 | 14923 ft | 237 kts | 101° |
| 2026-04-21 08:51 | 27.51081 | 85.90310 | 14931 ft | 237 kts | 96° |
| 2026-04-21 08:51 | 27.50971 | 85.92137 | 14928 ft | 237 kts | 91° |
| 2026-04-21 08:51 | 27.50919 | 85.93990 | 14932 ft | 236 kts | 91° |
| 2026-04-21 08:51 | 27.50850 | 85.95838 | 14932 ft | 236 kts | 91° |
| 2026-04-21 08:52 | 27.50777 | 85.97691 | 14929 ft | 236 kts | 92° |
| 2026-04-21 08:52 | 27.50709 | 85.99540 | 14931 ft | 236 kts | 92° |
| 2026-04-21 08:52 | 27.50640 | 86.01394 | 14919 ft | 235 kts | 91° |
| 2026-04-21 08:52 | 27.50571 | 86.03230 | 14937 ft | 235 kts | 92° |
| 2026-04-21 08:53 | 27.50502 | 86.05074 | 14937 ft | 236 kts | 91° |
| 2026-04-21 08:53 | 27.50433 | 86.06895 | 14935 ft | 236 kts | 92° |
| 2026-04-21 08:53 | 27.50363 | 86.08746 | 14937 ft | 236 kts | 92° |
| 2026-04-21 08:53 | 27.50292 | 86.10606 | 14938 ft | 237 kts | 91° |
| 2026-04-21 08:54 | 27.50222 | 86.12445 | 14940 ft | 238 kts | 92° |
| 2026-04-21 08:54 | 27.50150 | 86.14306 | 14940 ft | 237 kts | 91° |
| 2026-04-21 08:54 | 27.50079 | 86.16160 | 14941 ft | 237 kts | 92° |
| 2026-04-21 08:54 | 27.50008 | 86.18018 | 14939 ft | 238 kts | 91° |
| 2026-04-21 08:55 | 27.49936 | 86.19882 | 14967 ft | 238 kts | 91° |
| 2026-04-21 08:55 | 27.49864 | 86.21749 | 14970 ft | 238 kts | 92° |
| 2026-04-21 08:55 | 27.49786 | 86.23612 | 14961 ft | 238 kts | 91° |
| 2026-04-21 08:55 | 27.49719 | 86.25466 | 14964 ft | 236 kts | 92° |
| 2026-04-21 08:56 | 27.49560 | 86.27311 | 14952 ft | 236 kts | 103° |
| 2026-04-21 08:56 | 27.49137 | 86.29088 | 14965 ft | 236 kts | 104° |
| 2026-04-21 08:56 | 27.48735 | 86.30878 | 14965 ft | 236 kts | 103° |
| 2026-04-21 08:56 | 27.48333 | 86.32681 | 14966 ft | 238 kts | 104° |
| 2026-04-21 08:57 | 27.47924 | 86.34490 | 14998 ft | 239 kts | 104° |
| 2026-04-21 08:57 | 27.47512 | 86.36303 | 15001 ft | 239 kts | 104° |
| 2026-04-21 08:57 | 27.47102 | 86.38114 | 14997 ft | 238 kts | 104° |
| 2026-04-21 08:57 | 27.46693 | 86.39918 | 15002 ft | 238 kts | 104° |
| 2026-04-21 08:58 | 27.46288 | 86.41700 | 14997 ft | 238 kts | 104° |
| 2026-04-21 08:58 | 27.45879 | 86.43502 | 14997 ft | 236 kts | 104° |
| 2026-04-21 08:58 | 27.45470 | 86.45302 | 15002 ft | 238 kts | 104° |
| 2026-04-21 08:58 | 27.45060 | 86.47108 | 14997 ft | 237 kts | 104° |
| 2026-04-21 08:59 | 27.44651 | 86.48905 | 15000 ft | 237 kts | 104° |
| 2026-04-21 08:59 | 27.44240 | 86.50707 | 15026 ft | 238 kts | 104° |
| 2026-04-21 08:59 | 27.43840 | 86.52469 | 15008 ft | 222 kts | 104° |
| 2026-04-21 08:59 | 27.43463 | 86.54123 | 14745 ft | 220 kts | 104° |
| 2026-04-21 09:00 | 27.43080 | 86.55799 | 14411 ft | 221 kts | 103° |
| 2026-04-21 09:00 | 27.42696 | 86.57488 | 14159 ft | 223 kts | 103° |
| 2026-04-21 09:00 | 27.42308 | 86.59183 | 13912 ft | 223 kts | 103° |
| 2026-04-21 09:00 | 27.42024 | 86.60874 | 13655 ft | 218 kts | 90° |
| 2026-04-21 09:01 | 27.42226 | 86.62561 | 13363 ft | 217 kts | 69° |
| 2026-04-21 09:01 | 27.42890 | 86.64056 | 13068 ft | 210 kts | 49° |
| 2026-04-21 09:01 | 27.43909 | 86.65199 | 12906 ft | 208 kts | 35° |
| 2026-04-21 09:01 | 27.45189 | 86.65925 | 12622 ft | 208 kts | 17° |
| 2026-04-21 09:02 | 27.46582 | 86.66344 | 12357 ft | 207 kts | 14° |
| 2026-04-21 09:02 | 27.47970 | 86.66768 | 12087 ft | 207 kts | 14° |
| 2026-04-21 09:02 | 27.49362 | 86.67194 | 11819 ft | 207 kts | 13° |
| 2026-04-21 09:03 | 27.52218 | 86.67617 | 11300 ft | 207 kts | 8° |
| 2026-04-21 09:03 | 27.53632 | 86.67840 | 11035 ft | 203 kts | 6° |
| 2026-04-21 09:03 | 27.55018 | 86.68042 | 10750 ft | 194 kts | 6° |
| 2026-04-21 09:03 | 27.56372 | 86.68231 | 10562 ft | 198 kts | 6° |
| 2026-04-21 09:04 | 27.57754 | 86.68427 | 10320 ft | 202 kts | 6° |
| 2026-04-21 09:04 | 27.59156 | 86.68623 | 10133 ft | 200 kts | 6° |
| 2026-04-21 09:04 | 27.60506 | 86.68815 | 10123 ft | 192 kts | 6° |
| 2026-04-21 09:04 | 27.61791 | 86.68998 | 10119 ft | 179 kts | 6° |
| 2026-04-21 09:05 | 27.62942 | 86.69174 | 10113 ft | 160 kts | 7° |
| 2026-04-21 09:05 | 27.64024 | 86.69370 | 10111 ft | 156 kts | 8° |
| 2026-04-21 09:05 | 27.65066 | 86.69552 | 10129 ft | 146 kts | 8° |
| 2026-04-21 09:05 | 27.66046 | 86.69802 | 10151 ft | 148 kts | 14° |
| 2026-04-21 09:06 | 27.67006 | 86.70347 | 9886 ft | 160 kts | 37° |
| 2026-04-21 09:06 | 27.67755 | 86.71175 | 9517 ft | 142 kts | 54° |
| 2026-04-21 09:06 | 27.68240 | 86.72077 | 9244 ft | 124 kts | 65° |
| 2026-04-21 09:06 | 27.68615 | 86.72816 | 9299 ft | 85 kts | 64° |
| 2026-04-21 09:07 | 27.68778 | 86.73136 | 9473 ft | 9 kts | 61° |
| 2026-04-21 09:07 | 27.68777 | 86.73165 | 9473 ft | 0 kts | 143° |
| 2026-04-21 09:07 | 27.68776 | 86.73166 | 9473 ft | 2 kts | 143° |
| 2026-04-21 09:07 | 27.68751 | 86.73192 | 9474 ft | 4 kts | 81° |
| 2026-04-21 09:08 | 27.68765 | 86.73200 | 9474 ft | 0 kts | 353° |
| 2026-04-21 09:08 | 27.68766 | 86.73200 | 9474 ft | 2 kts | 359° |
| 2026-04-21 09:08 | 27.68768 | 86.73199 | 9472 ft | 0 kts | 2° |